If you wish to contribute or participate in the discussions about articles you are invited to join SKYbrary as a registered user

 Actions

Latakia/Bassel Al Assad Intl

From SKYbrary Wiki

OSLK
Airport
ICAO: OSLK – IATA: LTK
Summary
Name Latakia/Bassel Al Assad Intl
Region Middle East
Territory Syria SY.gif
Location Latakia, Al Ladhiqiyah
Serving Latakia
Elevation 47.854 m
157 ft
157 ft47.854 m
Coordinates 35° 24' 3.94" N, 35° 56' 55.25" E
Runways
Designator Length Width Surface ROPS
17/35 2797 m9,176.509 ft
45 m147.638 ft
ASP no/no


METAR
Observation OSLK 250100Z 04003KT CAVOK 21/18 Q1008
Station Lattakia
Date/Time 25 June 2019 01:00:00
Wind direction 40°
Wind speed 03 kts
Lowest cloud amount clouds and visibility OK
Temperature 21°C
Dew point 18°C
Humidity 83%
QNH 1008 hPa
Weather condition n/a

Description

Bassel al-Assad International Airport is an airport serving Latakia, the principal port city of Syria.

Maps

Terrain

Loading map...

Airport Layout

Loading map...


Accidents & Serious Incidents at or in vicinity of OSLK

None on SKYbrary